Time;durP1;ratioP1;P1;durP2;ratioP2;P2;SDS_P1;SDS_P2;PMS_P1;PMS_P2;Temp;Humidity;BMP_temperature;BMP_pressure;BME280_temperature;BME280_humidity;BME280_pressure;Samples;Min_cycle;Max_cycle;Signal;HPM_P1;HPM_P2
2023/07/27 00:01:37;;;;;;;6.30;5.17;;;13.70;99.90;;;;;;4994798;28;20534;-70
2023/07/27 00:04:05;;;;;;;6.90;5.40;;;13.60;99.90;;;;;;5005293;28;20470;-69
2023/07/27 00:06:33;;;;;;;5.17;4.60;;;13.60;99.90;;;;;;4982788;28;20455;-70
2023/07/27 00:09:01;;;;;;;7.47;5.00;;;13.60;99.90;;;;;;4981559;28;20478;-70
2023/07/27 00:11:31;;;;;;;5.20;4.70;;;13.80;99.90;;;;;;4985648;28;20450;-69
2023/07/27 00:13:59;;;;;;;6.17;4.47;;;13.90;99.90;;;;;;4982307;28;20512;-70
2023/07/27 00:16:27;;;;;;;4.83;4.10;;;13.80;99.90;;;;;;4980178;28;20475;-70
2023/07/27 00:18:54;;;;;;;5.53;4.60;;;13.90;99.90;;;;;;4973218;28;21019;-68
2023/07/27 00:21:22;;;;;;;5.07;4.57;;;13.90;99.90;;;;;;4976673;28;21023;-70
2023/07/27 00:23:50;;;;;;;8.53;4.37;;;13.90;99.90;;;;;;4973609;28;20470;-71
2023/07/27 00:26:18;;;;;;;4.80;4.30;;;13.90;99.90;;;;;;4982866;28;20857;-69
2023/07/27 00:28:47;;;;;;;4.13;3.73;;;14.00;99.90;;;;;;4980566;28;20451;-69
2023/07/27 00:31:15;;;;;;;5.00;4.37;;;14.00;99.90;;;;;;4979039;28;20477;-70
2023/07/27 00:33:43;;;;;;;5.10;4.07;;;14.00;99.90;;;;;;4978311;28;20892;-69
2023/07/27 00:36:11;;;;;;;4.73;3.90;;;14.00;99.90;;;;;;4985146;28;20533;-70
2023/07/27 00:38:39;;;;;;;5.33;3.97;;;14.00;99.90;;;;;;4977747;28;20456;-70
2023/07/27 00:41:07;;;;;;;6.13;4.60;;;14.10;99.90;;;;;;4996093;28;20845;-70
2023/07/27 00:43:35;;;;;;;4.20;3.80;;;14.10;99.90;;;;;;4990559;28;20890;-70
2023/07/27 00:46:05;;;;;;;4.30;3.90;;;14.10;99.90;;;;;;4992632;28;20903;-69
2023/07/27 00:48:34;;;;;;;4.30;3.90;;;14.10;99.90;;;;;;4988874;28;20455;-69
2023/07/27 00:51:02;;;;;;;4.67;3.40;;;14.10;99.90;;;;;;5004865;28;20497;-71
2023/07/27 00:53:30;;;;;;;3.77;3.47;;;14.10;99.90;;;;;;4990135;28;20475;-70
2023/07/27 00:55:59;;;;;;;4.33;3.60;;;14.10;99.90;;;;;;4989154;28;20443;-70
2023/07/27 00:58:27;;;;;;;3.23;2.90;;;14.10;99.90;;;;;;4988891;28;20940;-70
2023/07/27 01:00:55;;;;;;;4.20;3.80;;;14.10;99.90;;;;;;4990457;28;20855;-71
2023/07/27 01:03:25;;;;;;;4.10;3.70;;;14.10;99.90;;;;;;4975701;28;20475;-70
2023/07/27 01:05:53;;;;;;;3.97;3.50;;;14.10;99.90;;;;;;4977948;28;20459;-70
2023/07/27 01:08:21;;;;;;;4.70;4.30;;;14.00;99.90;;;;;;4986557;28;20453;-70
2023/07/27 01:10:58;;;;;;;6.33;4.23;;;13.90;99.90;;;;;;4981797;28;20453;-70
2023/07/27 01:13:32;;;;;;;5.33;3.50;;;14.00;99.90;;;;;;4986167;28;20477;-69
2023/07/27 01:16:05;;;;;;;4.13;3.57;;;14.00;99.90;;;;;;4976261;28;20481;-69
2023/07/27 01:18:42;;;;;;;6.87;3.90;;;13.90;99.90;;;;;;4977271;28;20461;-69
2023/07/27 01:21:16;;;;;;;3.90;3.53;;;13.80;99.90;;;;;;4975475;28;20484;-71
2023/07/27 01:24:23;;;;;;;6.20;3.70;;;13.80;99.90;;;;;;4985653;28;20996;-69
2023/07/27 01:27:18;;;;;;;4.57;4.17;;;13.70;99.90;;;;;;4920390;29;21243;-70
2023/07/27 01:30:10;;;;;;;4.40;4.00;;;13.70;99.90;;;;;;4975172;28;20454;-70
2023/07/27 01:32:41;;;;;;;5.80;5.00;;;13.70;99.90;;;;;;4956225;28;20471;-68
2023/07/27 01:35:14;;;;;;;5.13;3.57;;;13.70;99.90;;;;;;4994738;28;20836;-70
2023/07/27 01:37:44;;;;;;;3.90;3.50;;;13.70;99.90;;;;;;4996147;28;20485;-68
2023/07/27 01:40:15;;;;;;;4.10;3.70;;;13.70;99.90;;;;;;4976124;28;20451;-68
2023/07/27 01:42:44;;;;;;;5.00;3.57;;;13.70;99.90;;;;;;4980233;28;20544;-69
2023/07/27 01:45:15;;;;;;;4.07;3.67;;;13.80;99.90;;;;;;4989508;28;20439;-68
2023/07/27 01:47:46;;;;;;;5.37;4.00;;;13.80;99.90;;;;;;4978083;28;20445;-68
2023/07/27 01:50:15;;;;;;;4.60;3.63;;;13.80;99.90;;;;;;4973064;28;20949;-70
2023/07/27 01:52:45;;;;;;;4.30;3.70;;;13.80;99.90;;;;;;4982483;28;20505;-70
2023/07/27 01:55:16;;;;;;;6.30;3.50;;;13.70;99.90;;;;;;4988853;28;20476;-70
2023/07/27 01:57:45;;;;;;;3.87;3.47;;;13.80;99.90;;;;;;4977555;28;20500;-70
2023/07/27 02:00:15;;;;;;;4.10;3.70;;;13.70;99.90;;;;;;4979816;28;20449;-70
2023/07/27 02:02:45;;;;;;;4.67;3.30;;;13.70;99.90;;;;;;4978320;28;20507;-67
2023/07/27 02:05:15;;;;;;;4.13;3.70;;;13.60;99.90;;;;;;4977360;28;20582;-71
2023/07/27 02:07:44;;;;;;;3.83;3.53;;;13.60;99.90;;;;;;4975215;28;20542;-70
2023/07/27 02:10:14;;;;;;;5.50;3.83;;;13.50;99.90;;;;;;4976571;28;20452;-69
2023/07/27 02:12:45;;;;;;;5.33;3.77;;;13.30;99.90;;;;;;4979729;28;20472;-69
2023/07/27 02:15:18;;;;;;;6.07;4.23;;;13.30;99.90;;;;;;4980057;28;20450;-68
2023/07/27 02:17:53;;;;;;;4.80;4.10;;;13.30;99.90;;;;;;4979882;28;20459;-70
2023/07/27 02:20:22;;;;;;;7.03;4.10;;;13.20;99.90;;;;;;4978678;28;20454;-70
2023/07/27 02:22:51;;;;;;;4.03;3.63;;;13.10;99.90;;;;;;4976543;28;20480;-70
2023/07/27 02:25:20;;;;;;;4.10;3.70;;;13.10;99.90;;;;;;4980826;28;20513;-68
2023/07/27 02:27:48;;;;;;;4.07;3.70;;;13.10;99.90;;;;;;4983057;28;20868;-69
2023/07/27 02:30:17;;;;;;;5.17;3.60;;;13.10;99.90;;;;;;4983076;28;20447;-70
2023/07/27 02:32:45;;;;;;;3.97;3.67;;;13.10;99.90;;;;;;4982439;28;20477;-69
2023/07/27 02:35:14;;;;;;;4.90;3.80;;;13.20;99.90;;;;;;4982645;28;20456;-68
2023/07/27 02:37:42;;;;;;;4.50;3.13;;;13.20;99.90;;;;;;4979757;28;20877;-68
2023/07/27 02:40:10;;;;;;;4.57;3.90;;;13.30;99.90;;;;;;4982463;28;20445;-71
2023/07/27 02:42:38;;;;;;;4.83;3.83;;;13.20;99.90;;;;;;4971127;28;20490;-71
2023/07/27 02:45:07;;;;;;;4.17;3.80;;;13.20;99.90;;;;;;4984016;28;20508;-68
2023/07/27 02:47:35;;;;;;;4.00;3.43;;;13.20;99.90;;;;;;4984553;28;20447;-70
2023/07/27 02:50:03;;;;;;;5.30;3.73;;;13.40;99.90;;;;;;4981626;28;20451;-70
2023/07/27 02:52:32;;;;;;;3.80;3.43;;;13.40;99.90;;;;;;4985162;28;20850;-69
2023/07/27 02:55:00;;;;;;;4.00;3.60;;;13.30;99.90;;;;;;4979835;28;20455;-69
2023/07/27 02:57:28;;;;;;;5.93;3.97;;;13.30;99.90;;;;;;4988261;28;20453;-70
2023/07/27 02:59:56;;;;;;;3.97;3.50;;;13.30;99.90;;;;;;4978615;28;20486;-69
2023/07/27 03:02:24;;;;;;;4.43;3.13;;;13.40;99.90;;;;;;4975810;28;20483;-67
2023/07/27 03:04:52;;;;;;;3.90;3.50;;;13.30;99.90;;;;;;4978512;28;20467;-69
2023/07/27 03:07:20;;;;;;;3.60;3.00;;;13.50;99.90;;;;;;4983604;28;20478;-69
2023/07/27 03:09:52;;;;;;;4.13;3.20;;;13.50;99.90;;;;;;4979820;28;20546;-69
2023/07/27 03:12:20;;;;;;;4.07;3.63;;;13.50;99.90;;;;;;4973792;28;20476;-69
2023/07/27 03:14:48;;;;;;;5.07;3.27;;;13.50;99.90;;;;;;4977260;28;20511;-70
2023/07/27 03:17:16;;;;;;;3.40;3.10;;;13.50;99.90;;;;;;4980612;28;20452;-70
2023/07/27 03:19:44;;;;;;;4.37;3.73;;;13.60;99.90;;;;;;4977625;28;20454;-70
2023/07/27 03:22:12;;;;;;;7.30;3.20;;;13.60;99.90;;;;;;4980552;28;20485;-69
2023/07/27 03:24:40;;;;;;;3.67;3.20;;;13.60;99.90;;;;;;4981096;28;20461;-70
2023/07/27 03:27:09;;;;;;;4.07;3.33;;;13.70;99.90;;;;;;4979434;28;20458;-70
2023/07/27 03:29:37;;;;;;;4.20;3.10;;;13.80;99.90;;;;;;4979552;28;20524;-70
2023/07/27 03:32:06;;;;;;;3.80;3.50;;;13.80;99.90;;;;;;4981039;28;20461;-70
2023/07/27 03:34:34;;;;;;;4.13;3.20;;;13.90;99.90;;;;;;4987579;28;20953;-70
2023/07/27 03:37:01;;;;;;;4.70;3.63;;;13.90;99.90;;;;;;5001120;28;20464;-70
2023/07/27 03:39:30;;;;;;;2.87;2.63;;;13.80;99.90;;;;;;4989877;28;20453;-70
2023/07/27 03:41:58;;;;;;;3.73;3.27;;;13.90;99.90;;;;;;4981915;28;20478;-70
2023/07/27 03:44:27;;;;;;;3.00;2.60;;;14.00;99.90;;;;;;4981274;28;20477;-70
2023/07/27 03:46:55;;;;;;;3.37;3.07;;;14.10;99.90;;;;;;4980152;28;20644;-70
2023/07/27 03:49:23;;;;;;;3.53;3.20;;;14.20;99.90;;;;;;4984756;28;20804;-70
2023/07/27 03:51:51;;;;;;;3.57;3.20;;;14.10;99.90;;;;;;4985799;28;20954;-70
2023/07/27 03:54:19;;;;;;;3.03;2.83;;;14.20;99.90;;;;;;4985956;28;20478;-68
2023/07/27 03:56:47;;;;;;;3.37;3.07;;;14.10;99.90;;;;;;4984273;28;20541;-69
2023/07/27 03:59:15;;;;;;;3.20;2.90;;;14.10;99.90;;;;;;4978588;28;20479;-70
2023/07/27 04:01:47;;;;;;;2.80;2.60;;;14.10;99.90;;;;;;4985707;28;20462;-69
2023/07/27 04:04:15;;;;;;;4.50;3.50;;;14.10;99.90;;;;;;4980927;28;20483;-69
2023/07/27 04:06:43;;;;;;;3.07;2.77;;;14.10;99.90;;;;;;4975062;28;20447;-69
2023/07/27 04:09:11;;;;;;;3.50;2.60;;;14.20;99.90;;;;;;4987438;28;20470;-68
2023/07/27 04:11:39;;;;;;;2.90;2.70;;;14.30;99.90;;;;;;4980602;28;20900;-71
2023/07/27 04:14:07;;;;;;;2.97;2.67;;;14.20;99.90;;;;;;4979190;28;20479;-69
2023/07/27 04:16:36;;;;;;;2.77;2.47;;;14.30;99.90;;;;;;4979113;28;20452;-69
2023/07/27 04:19:05;;;;;;;3.97;3.00;;;14.30;99.90;;;;;;4984851;28;21214;-69
2023/07/27 04:21:33;;;;;;;3.70;2.90;;;14.30;99.90;;;;;;4987768;28;20500;-70
2023/07/27 04:24:01;;;;;;;4.13;2.87;;;14.40;99.90;;;;;;4990967;28;20496;-71
2023/07/27 04:26:30;;;;;;;3.27;2.97;;;14.40;99.90;;;;;;4973195;28;20442;-71
2023/07/27 04:28:59;;;;;;;3.20;2.70;;;14.40;99.90;;;;;;4991279;28;21049;-70
2023/07/27 04:31:27;;;;;;;2.97;2.70;;;14.50;99.90;;;;;;4991031;28;20816;-71
2023/07/27 04:33:55;;;;;;;3.20;2.90;;;14.40;99.90;;;;;;4988060;28;20547;-71
2023/07/27 04:36:24;;;;;;;3.00;2.70;;;14.50;99.90;;;;;;4980922;28;20454;-72
2023/07/27 04:38:52;;;;;;;4.10;3.10;;;14.60;99.90;;;;;;4985622;28;20894;-71
2023/07/27 04:41:20;;;;;;;3.17;2.97;;;14.60;99.90;;;;;;4983902;28;20493;-70
2023/07/27 04:43:48;;;;;;;2.40;2.20;;;14.60;99.90;;;;;;4981692;28;20485;-70
2023/07/27 04:46:16;;;;;;;3.17;2.53;;;14.60;99.90;;;;;;4983346;28;20537;-71
2023/07/27 04:48:44;;;;;;;3.27;2.77;;;14.70;99.90;;;;;;4985923;28;20508;-71
2023/07/27 04:51:12;;;;;;;3.30;2.50;;;14.80;99.90;;;;;;4973861;28;20452;-72
2023/07/27 04:53:41;;;;;;;3.57;2.50;;;14.90;99.90;;;;;;4986183;28;20471;-72
2023/07/27 04:56:09;;;;;;;4.13;3.10;;;14.90;99.90;;;;;;4988875;28;20480;-70
2023/07/27 04:58:37;;;;;;;5.07;3.10;;;15.00;99.90;;;;;;4973541;28;20507;-70
2023/07/27 05:01:05;;;;;;;3.20;2.90;;;15.10;99.90;;;;;;4987099;28;20450;-71
2023/07/27 05:03:33;;;;;;;3.10;2.80;;;15.20;99.90;;;;;;4985266;28;20542;-72
2023/07/27 05:06:01;;;;;;;2.87;2.67;;;15.30;99.90;;;;;;4984701;28;21010;-70
2023/07/27 05:08:28;;;;;;;2.87;2.67;;;15.40;99.90;;;;;;4988370;28;20827;-70
2023/07/27 05:10:58;;;;;;;3.40;3.17;;;15.40;99.90;;;;;;4980647;28;21024;-71
2023/07/27 05:13:26;;;;;;;2.73;2.53;;;15.50;99.90;;;;;;4980323;28;20468;-71
2023/07/27 05:15:54;;;;;;;4.57;2.90;;;15.60;99.90;;;;;;4983036;28;20926;-70
2023/07/27 05:18:22;;;;;;;2.70;2.50;;;15.80;99.90;;;;;;4991962;28;20506;-71
2023/07/27 05:20:50;;;;;;;3.40;2.60;;;15.80;99.90;;;;;;4984754;28;20537;-71
2023/07/27 05:23:18;;;;;;;3.03;2.73;;;16.00;99.90;;;;;;4982431;28;20483;-70
2023/07/27 05:25:48;;;;;;;2.50;2.30;;;16.00;99.90;;;;;;4981387;28;20673;-70
2023/07/27 05:28:17;;;;;;;4.30;2.80;;;16.00;99.90;;;;;;4975889;28;20459;-71
2023/07/27 05:30:45;;;;;;;3.03;2.80;;;16.10;99.90;;;;;;4975856;28;20451;-71
2023/07/27 05:33:13;;;;;;;4.20;2.73;;;16.10;99.90;;;;;;4973030;28;20503;-71
2023/07/27 05:35:41;;;;;;;3.33;2.80;;;16.20;99.90;;;;;;4976912;28;20455;-70
2023/07/27 05:38:09;;;;;;;3.47;2.90;;;16.20;99.90;;;;;;4979004;28;20501;-70
2023/07/27 05:40:37;;;;;;;3.60;3.30;;;16.40;99.90;;;;;;4976343;28;20450;-71
2023/07/27 05:43:05;;;;;;;3.80;3.00;;;16.50;99.90;;;;;;4984566;28;20514;-71
2023/07/27 05:45:34;;;;;;;3.37;2.90;;;16.50;99.90;;;;;;4977625;28;21007;-72
2023/07/27 05:48:02;;;;;;;4.03;3.27;;;16.50;99.90;;;;;;4981670;28;20980;-72
2023/07/27 05:50:30;;;;;;;3.10;2.57;;;16.70;99.90;;;;;;4982952;28;20483;-70
2023/07/27 05:52:58;;;;;;;3.37;3.07;;;16.70;99.90;;;;;;4981137;28;20873;-71
2023/07/27 05:55:26;;;;;;;4.00;3.13;;;16.80;99.90;;;;;;4979181;28;20451;-70
2023/07/27 05:57:54;;;;;;;7.63;3.10;;;16.90;99.90;;;;;;4976297;28;20455;-70
2023/07/27 06:00:28;;;;;;;3.23;2.90;;;16.90;99.90;;;;;;4989166;28;20446;-70
2023/07/27 06:02:57;;;;;;;5.13;3.07;;;16.90;99.90;;;;;;4984655;28;20497;-71
2023/07/27 06:05:26;;;;;;;5.53;3.83;;;17.00;99.90;;;;;;4975702;28;20525;-71
2023/07/27 06:07:53;;;;;;;4.87;2.80;;;17.00;99.90;;;;;;4981373;28;20544;-71
2023/07/27 06:10:21;;;;;;;5.27;2.97;;;17.10;99.90;;;;;;4981364;28;20469;-71
2023/07/27 06:12:49;;;;;;;3.27;2.80;;;17.10;99.90;;;;;;4974778;28;20873;-71
2023/07/27 06:15:17;;;;;;;6.73;3.20;;;17.00;99.90;;;;;;4978918;28;20461;-70
2023/07/27 06:17:45;;;;;;;4.93;3.07;;;17.20;99.90;;;;;;4978512;28;20454;-71
2023/07/27 06:20:15;;;;;;;5.73;2.50;;;17.30;99.90;;;;;;4979023;28;20447;-69
2023/07/27 06:22:43;;;;;;;4.47;3.10;;;17.40;99.90;;;;;;4975647;28;21004;-70
2023/07/27 06:25:10;;;;;;;3.60;2.83;;;17.50;99.90;;;;;;4985005;28;20458;-71
2023/07/27 06:27:38;;;;;;;2.50;2.30;;;17.60;99.90;;;;;;4979410;28;20514;-71
2023/07/27 06:30:09;;;;;;;4.00;2.90;;;17.70;99.90;;;;;;4975375;28;20462;-70
2023/07/27 06:32:37;;;;;;;2.57;2.37;;;17.80;99.90;;;;;;4986184;28;21016;-71
2023/07/27 06:35:06;;;;;;;3.80;3.00;;;17.90;99.90;;;;;;4986287;28;20457;-70
2023/07/27 06:37:35;;;;;;;3.60;2.73;;;18.00;99.90;;;;;;4971556;28;20475;-71
2023/07/27 06:40:05;;;;;;;3.30;2.50;;;18.10;99.90;;;;;;4981456;28;20462;-71
2023/07/27 06:42:33;;;;;;;3.80;3.10;;;18.30;99.90;;;;;;4982883;28;20478;-71
2023/07/27 06:45:01;;;;;;;4.63;3.87;;;18.40;99.90;;;;;;4976672;28;20480;-71
2023/07/27 06:47:29;;;;;;;3.43;2.93;;;18.60;99.90;;;;;;4979065;28;20451;-71
2023/07/27 06:49:58;;;;;;;3.33;2.87;;;18.80;99.90;;;;;;4989603;28;20457;-72
2023/07/27 06:52:25;;;;;;;2.90;2.63;;;19.00;99.90;;;;;;4981235;28;20468;-71
2023/07/27 06:54:55;;;;;;;5.30;3.23;;;19.00;99.90;;;;;;4976351;28;20444;-71
2023/07/27 06:57:26;;;;;;;2.83;2.53;;;19.00;99.90;;;;;;4980759;28;20452;-72
2023/07/27 06:59:54;;;;;;;4.50;2.70;;;19.20;99.90;;;;;;4979513;28;20458;-71
2023/07/27 07:02:22;;;;;;;4.20;3.00;;;19.40;99.90;;;;;;4971324;28;20951;-69
2023/07/27 07:04:50;;;;;;;4.67;3.17;;;19.50;99.90;;;;;;4971780;28;20480;-71
2023/07/27 07:07:19;;;;;;;4.17;3.27;;;19.70;99.90;;;;;;4980165;28;20498;-70
2023/07/27 07:09:47;;;;;;;3.77;3.03;;;19.90;99.90;;;;;;4981493;28;20447;-71
2023/07/27 07:12:18;;;;;;;4.30;2.43;;;20.00;99.90;;;;;;4979439;28;20869;-71
2023/07/27 07:14:46;;;;;;;3.63;2.50;;;20.00;99.90;;;;;;4972657;28;20452;-68
2023/07/27 07:17:13;;;;;;;2.20;1.93;;;20.00;99.90;;;;;;4979108;28;20547;-70
2023/07/27 07:19:42;;;;;;;3.50;2.33;;;19.70;99.90;;;;;;4979253;28;20455;-71
2023/07/27 07:22:10;;;;;;;3.40;2.20;;;19.70;99.90;;;;;;4985374;28;20521;-72
2023/07/27 07:24:38;;;;;;;2.57;2.37;;;19.60;99.90;;;;;;4975873;28;20479;-70
2023/07/27 07:27:06;;;;;;;5.10;2.90;;;19.60;99.90;;;;;;4976917;28;20443;-71
2023/07/27 07:29:36;;;;;;;3.83;2.87;;;19.60;99.90;;;;;;4981018;28;20981;-70
2023/07/27 07:32:05;;;;;;;3.07;2.03;;;19.60;99.90;;;;;;4983889;28;20455;-71
2023/07/27 07:34:33;;;;;;;2.40;2.20;;;19.60;99.90;;;;;;4972552;28;20444;-71
2023/07/27 07:37:01;;;;;;;4.40;2.40;;;19.50;99.90;;;;;;4978378;28;20469;-72
2023/07/27 07:39:30;;;;;;;2.10;1.83;;;19.60;99.90;;;;;;4983195;28;20455;-72
2023/07/27 07:41:59;;;;;;;2.47;2.27;;;19.50;99.90;;;;;;4978931;28;20969;-72
2023/07/27 07:44:27;;;;;;;3.30;2.50;;;19.70;99.90;;;;;;4982640;28;20505;-70
2023/07/27 07:46:56;;;;;;;4.00;2.40;;;19.60;99.90;;;;;;4978045;28;20458;-69
2023/07/27 07:49:26;;;;;;;3.10;2.30;;;19.60;99.90;;;;;;4980140;28;20448;-70
2023/07/27 07:51:54;;;;;;;2.53;2.33;;;19.60;99.90;;;;;;4980058;28;20526;-69
2023/07/27 07:54:22;;;;;;;2.80;2.50;;;19.50;99.90;;;;;;4973605;28;20455;-71
2023/07/27 07:56:49;;;;;;;4.60;2.13;;;19.40;99.90;;;;;;4972696;28;20458;-70
2023/07/27 07:59:17;;;;;;;4.30;2.50;;;19.20;99.90;;;;;;4977144;28;20447;-70
2023/07/27 08:01:45;;;;;;;5.22;2.50;;;19.20;99.90;;;;;;4985490;28;20444;-69
2023/07/27 08:04:14;;;;;;;4.20;3.03;;;19.10;99.90;;;;;;4985688;28;20772;-69
2023/07/27 08:06:42;;;;;;;3.67;2.60;;;18.90;99.90;;;;;;4982551;28;20482;-69
2023/07/27 08:09:10;;;;;;;3.73;2.60;;;18.70;99.90;;;;;;4983261;28;20447;-69
2023/07/27 08:11:41;;;;;;;3.20;2.77;;;18.50;99.90;;;;;;4981840;28;20448;-70
2023/07/27 08:14:09;;;;;;;3.30;2.33;;;18.30;99.90;;;;;;4984087;28;21096;-70
2023/07/27 08:16:37;;;;;;;3.23;2.37;;;18.10;99.90;;;;;;4977378;28;20486;-70
2023/07/27 08:19:05;;;;;;;3.10;2.80;;;17.80;99.90;;;;;;4977374;28;20456;-69
2023/07/27 08:21:35;;;;;;;3.03;2.70;;;17.60;99.90;;;;;;4978721;28;20527;-69
2023/07/27 08:24:05;;;;;;;4.13;2.63;;;17.50;99.90;;;;;;4987494;28;20473;-70
2023/07/27 08:26:33;;;;;;;4.07;2.60;;;17.40;99.90;;;;;;4975830;28;20454;-76
2023/07/27 08:29:02;;;;;;;3.73;2.77;;;17.40;99.90;;;;;;4985713;28;20461;-71
2023/07/27 08:31:30;;;;;;;4.03;2.50;;;17.40;99.90;;;;;;4988910;28;20457;-67
2023/07/27 08:33:57;;;;;;;3.47;2.10;;;17.60;99.90;;;;;;4997158;28;20485;-69
2023/07/27 08:36:25;;;;;;;3.37;3.03;;;17.70;99.90;;;;;;4983693;28;20890;-69
2023/07/27 08:38:55;;;;;;;2.90;2.70;;;17.80;99.90;;;;;;4980528;28;20454;-68
2023/07/27 08:41:23;;;;;;;2.33;2.10;;;18.00;99.90;;;;;;4977200;28;20877;-70
2023/07/27 08:43:51;;;;;;;3.60;2.20;;;18.10;99.90;;;;;;4975413;28;20557;-70
2023/07/27 08:46:21;;;;;;;4.27;2.70;;;18.20;99.90;;;;;;4985936;28;20479;-70
2023/07/27 08:48:50;;;;;;;2.60;2.00;;;18.30;99.90;;;;;;4980578;28;20455;-69
2023/07/27 08:51:18;;;;;;;2.50;2.30;;;18.40;99.90;;;;;;4994061;28;20903;-70
2023/07/27 08:53:46;;;;;;;2.83;2.57;;;18.50;99.90;;;;;;4981886;28;20566;-72
2023/07/27 08:56:16;;;;;;;4.33;2.27;;;18.70;99.90;;;;;;4983541;28;20462;-71
2023/07/27 08:58:44;;;;;;;3.70;2.23;;;18.80;99.90;;;;;;4993707;28;20537;-72
2023/07/27 09:01:12;;;;;;;4.10;2.40;;;19.00;99.90;;;;;;4990623;28;20535;-74
2023/07/27 09:03:42;;;;;;;2.93;2.73;;;19.00;99.90;;;;;;4976888;28;20471;-75
2023/07/27 09:06:10;;;;;;;6.23;2.93;;;18.90;99.90;;;;;;4984260;28;20541;-70
2023/07/27 09:08:38;;;;;;;4.23;2.87;;;18.90;99.90;;;;;;4978490;28;20484;-71
2023/07/27 09:11:08;;;;;;;5.40;2.97;;;18.90;99.90;;;;;;4982400;28;20475;-70
2023/07/27 09:13:38;;;;;;;3.40;2.43;;;18.90;99.90;;;;;;4974287;28;20483;-71
2023/07/27 09:16:08;;;;;;;5.70;2.60;;;18.90;99.90;;;;;;4977748;28;20476;-71
2023/07/27 09:18:37;;;;;;;3.03;2.43;;;18.90;99.90;;;;;;4982476;28;20462;-71
2023/07/27 09:21:09;;;;;;;2.47;2.27;;;18.80;99.90;;;;;;4981494;28;20525;-72
2023/07/27 09:23:39;;;;;;;2.27;2.07;;;18.70;99.90;;;;;;4975770;28;20478;-72
2023/07/27 09:26:07;;;;;;;4.70;2.97;;;18.50;99.90;;;;;;4974843;28;20602;-71
2023/07/27 09:28:35;;;;;;;6.97;3.40;;;18.30;99.90;;;;;;4985957;28;20456;-72
2023/07/27 09:31:04;;;;;;;3.87;2.90;;;18.20;99.90;;;;;;4986373;28;20538;-70
2023/07/27 09:33:32;;;;;;;5.23;3.23;;;18.00;99.90;;;;;;4980687;28;20502;-73
2023/07/27 09:36:01;;;;;;;4.20;2.73;;;17.80;99.90;;;;;;4984340;28;20499;-74
2023/07/27 09:38:30;;;;;;;4.50;2.90;;;17.60;99.90;;;;;;4977916;28;20498;-73
2023/07/27 09:40:58;;;;;;;2.57;2.37;;;17.50;99.90;;;;;;4978660;28;20454;-71
2023/07/27 09:43:26;;;;;;;3.60;3.10;;;17.30;99.90;;;;;;4975434;28;20494;-71
2023/07/27 09:45:58;;;;;;;4.03;2.90;;;17.10;99.90;;;;;;4982166;28;20555;-72
2023/07/27 09:48:29;;;;;;;5.10;3.17;;;17.00;99.90;;;;;;4988805;28;20521;-71
2023/07/27 09:50:59;;;;;;;3.20;2.90;;;17.00;99.90;;;;;;4975768;28;20448;-72
2023/07/27 09:53:29;;;;;;;3.70;3.40;;;17.00;99.90;;;;;;4990873;28;20991;-72
2023/07/27 09:55:59;;;;;;;3.97;3.23;;;17.00;99.90;;;;;;4986021;28;20458;-72
2023/07/27 09:58:29;;;;;;;5.97;3.20;;;17.10;99.90;;;;;;4975128;28;20483;-72
2023/07/27 10:00:57;;;;;;;3.43;2.80;;;17.30;99.90;;;;;;4978997;28;20476;-71
2023/07/27 10:03:25;;;;;;;3.53;3.13;;;17.50;99.90;;;;;;4982474;28;20477;-71
2023/07/27 10:05:56;;;;;;;5.50;3.30;;;17.70;99.90;;;;;;4976469;28;20587;-71
2023/07/27 10:08:25;;;;;;;4.80;3.33;;;18.00;99.90;;;;;;4982075;28;20499;-72
2023/07/27 10:10:54;;;;;;;3.40;3.10;;;18.30;99.90;;;;;;4989240;28;20449;-71
2023/07/27 10:13:37;;;;;;;5.37;2.93;;;18.60;99.90;;;;;;4992081;28;20502;-71
2023/07/27 10:16:09;;;;;;;4.27;2.93;;;18.70;99.90;;;;;;4975499;28;20821;-72
2023/07/27 10:18:42;;;;;;;7.83;2.67;;;18.90;99.90;;;;;;4974549;28;20475;-71
2023/07/27 10:21:29;;;;;;;2.87;2.63;;;19.00;99.90;;;;;;5002544;28;20532;-72
2023/07/27 10:24:00;;;;;;;4.20;3.10;;;19.10;99.90;;;;;;4997455;28;20480;-71
2023/07/27 10:26:50;;;;;;;7.20;3.37;;;19.20;99.90;;;;;;5005323;28;20479;-72
2023/07/27 10:29:20;;;;;;;3.57;3.20;;;19.10;99.90;;;;;;4980524;28;20447;-68
2023/07/27 10:32:01;;;;;;;3.17;2.70;;;19.10;99.90;;;;;;4985899;28;20459;-66
2023/07/27 10:34:30;;;;;;;3.50;3.00;;;19.20;99.90;;;;;;4983806;28;20887;-66
2023/07/27 10:37:08;;;;;;;3.00;2.63;;;19.20;99.90;;;;;;4984998;28;20458;-66
2023/07/27 10:39:44;;;;;;;6.97;3.37;;;19.30;99.90;;;;;;4985338;28;20774;-74
2023/07/27 10:42:14;;;;;;;3.50;2.60;;;19.40;99.90;;;;;;4986300;28;20520;-67
2023/07/27 10:44:47;;;;;;;3.40;2.43;;;19.70;99.90;;;;;;4984915;28;20950;-68
2023/07/27 10:47:17;;;;;;;4.53;3.30;;;20.00;99.90;;;;;;4984363;28;20482;-66
2023/07/27 10:49:48;;;;;;;3.10;2.80;;;20.30;99.90;;;;;;4984742;28;20443;-67
2023/07/27 10:52:18;;;;;;;2.93;2.73;;;20.60;99.90;;;;;;4984427;28;21024;-64
2023/07/27 10:54:48;;;;;;;2.97;2.50;;;20.70;99.90;;;;;;4985333;28;20545;-64
2023/07/27 10:57:18;;;;;;;3.00;2.50;;;20.90;99.90;;;;;;4985616;28;20455;-66
2023/07/27 10:59:48;;;;;;;5.40;2.90;;;21.00;99.90;;;;;;4985047;28;20548;-66
2023/07/27 11:02:18;;;;;;;5.53;3.43;;;21.20;99.90;;;;;;4981023;28;20553;-67
2023/07/27 11:04:48;;;;;;;4.40;3.20;;;21.30;99.90;;;;;;4993764;28;20822;-65
2023/07/27 11:07:28;;;;;;;3.57;2.90;;;21.50;99.90;;;;;;4979436;28;20566;-68
2023/07/27 11:09:56;;;;;;;5.20;3.00;;;21.70;99.90;;;;;;4977854;28;20546;-66
2023/07/27 11:12:24;;;;;;;3.17;2.87;;;21.80;99.90;;;;;;4983051;28;20474;-65
2023/07/27 11:14:52;;;;;;;3.03;2.53;;;22.10;99.90;;;;;;4983775;28;20443;-66
2023/07/27 11:17:20;;;;;;;3.43;2.43;;;22.30;99.90;;;;;;4979919;28;20440;-66
2023/07/27 11:19:49;;;;;;;4.20;2.63;;;22.50;99.90;;;;;;4979116;28;20559;-66
2023/07/27 11:22:17;;;;;;;3.27;2.60;;;22.60;99.90;;;;;;4977455;28;20489;-68
2023/07/27 11:24:48;;;;;;;4.23;2.90;;;22.60;99.90;;;;;;4978758;28;20453;-66
2023/07/27 11:27:16;;;;;;;3.40;2.63;;;22.60;99.90;;;;;;4980766;28;20470;-63
2023/07/27 11:29:46;;;;;;;2.93;2.30;;;22.50;99.90;;;;;;4978927;28;20447;-64
2023/07/27 11:32:14;;;;;;;3.97;2.33;;;22.40;99.90;;;;;;4982038;28;20467;-63
2023/07/27 11:34:42;;;;;;;2.67;2.47;;;22.40;99.90;;;;;;4984784;28;20570;-64
2023/07/27 11:37:10;;;;;;;4.50;2.37;;;22.40;99.90;;;;;;4986887;28;20450;-65
2023/07/27 11:39:38;;;;;;;3.13;2.50;;;22.60;99.90;;;;;;4984403;28;20459;-65
2023/07/27 11:42:10;;;;;;;4.23;2.60;;;22.80;99.90;;;;;;4981870;28;20723;-66
2023/07/27 11:44:39;;;;;;;5.33;2.90;;;22.90;99.90;;;;;;4981071;28;20458;-65
2023/07/27 11:47:07;;;;;;;4.27;2.70;;;22.80;99.90;;;;;;4984330;28;20482;-67
2023/07/27 11:49:37;;;;;;;3.37;2.53;;;22.60;99.90;;;;;;4986929;28;20447;-65
2023/07/27 11:52:08;;;;;;;3.73;3.10;;;22.30;99.90;;;;;;4990754;28;20454;-66
2023/07/27 11:54:40;;;;;;;3.87;2.10;;;21.80;99.90;;;;;;4980457;28;20545;-66
2023/07/27 11:57:10;;;;;;;2.60;2.40;;;21.60;99.90;;;;;;4979996;28;20440;-65
2023/07/27 11:59:38;;;;;;;4.90;2.57;;;21.40;99.90;;;;;;4981480;28;20454;-65
2023/07/27 12:02:06;;;;;;;4.13;2.70;;;21.00;99.90;;;;;;4983626;28;20537;-66
2023/07/27 12:04:35;;;;;;;2.67;2.47;;;20.80;99.90;;;;;;4980243;28;20455;-65
2023/07/27 12:07:03;;;;;;;2.73;2.40;;;20.50;99.90;;;;;;4983169;28;20479;-68
2023/07/27 12:09:37;;;;;;;2.30;2.10;;;20.40;99.90;;;;;;4984892;28;20942;-66
2023/07/27 12:12:08;;;;;;;3.00;2.13;;;20.30;99.90;;;;;;4982570;28;20451;-66
2023/07/27 12:14:42;;;;;;;3.83;2.13;;;20.20;99.90;;;;;;4983430;28;20510;-65
2023/07/27 12:17:11;;;;;;;2.87;2.60;;;20.10;99.90;;;;;;4981527;28;20470;-64
2023/07/27 12:19:42;;;;;;;4.23;2.10;;;20.20;99.90;;;;;;4982474;28;21038;-67
2023/07/27 12:22:30;;;;;;;3.57;2.37;;;20.20;99.90;;;;;;4983085;28;20471;-66
2023/07/27 12:25:02;;;;;;;4.50;2.70;;;20.30;99.90;;;;;;4984546;28;20451;-67
2023/07/27 12:27:33;;;;;;;3.03;2.47;;;20.20;99.90;;;;;;4980749;28;20467;-65
2023/07/27 12:30:03;;;;;;;3.90;2.57;;;20.10;99.90;;;;;;4986607;28;20903;-64
2023/07/27 12:32:34;;;;;;;2.57;2.27;;;20.10;99.90;;;;;;4973456;28;21031;-66
2023/07/27 12:35:02;;;;;;;3.60;2.70;;;19.90;99.90;;;;;;4981580;28;20533;-65
2023/07/27 12:37:33;;;;;;;4.90;2.40;;;19.90;99.90;;;;;;4987201;28;20486;-67
2023/07/27 12:40:04;;;;;;;3.60;2.27;;;19.80;99.90;;;;;;4988177;28;20816;-65
2023/07/27 12:42:34;;;;;;;3.20;2.83;;;19.60;99.90;;;;;;4983644;28;20918;-66
2023/07/27 12:45:04;;;;;;;2.80;2.53;;;19.50;99.90;;;;;;4978707;28;20463;-66
2023/07/27 12:47:32;;;;;;;3.93;3.03;;;19.30;99.90;;;;;;4980295;28;21201;-66
2023/07/27 12:50:00;;;;;;;3.50;3.20;;;19.00;99.90;;;;;;4985311;28;20996;-64
2023/07/27 12:52:28;;;;;;;3.60;2.47;;;18.90;99.90;;;;;;4983737;28;20472;-64
2023/07/27 12:54:56;;;;;;;3.30;2.83;;;18.90;99.90;;;;;;4979211;28;20457;-63
2023/07/27 12:57:24;;;;;;;4.27;2.60;;;18.80;99.90;;;;;;4975545;28;20443;-63
2023/07/27 12:59:52;;;;;;;6.43;3.17;;;18.80;99.90;;;;;;4974302;28;20455;-64